Time;durP1;ratioP1;P1;durP2;ratioP2;P2;SDS_P1;SDS_P2;PMS_P1;PMS_P2;Temp;Humidity;BMP_temperature;BMP_pressure;BME280_temperature;BME280_humidity;BME280_pressure;Samples;Min_cycle;Max_cycle;Signal;HPM_P1;HPM_P2
2021/01/13 00:00:39;;;;;;;24.87;13.50;;;;;;;2.09;64.93;97781.69;260614;1103;105291;-67
2021/01/13 00:05:48;;;;;;;23.83;14.30;;;;;;;2.13;64.57;97775.36;260866;1104;114868;-68
2021/01/13 00:10:50;;;;;;;26.37;15.07;;;;;;;2.19;65.02;97787.34;260808;1103;115059;-66
2021/01/13 00:15:52;;;;;;;27.40;14.50;;;;;;;2.16;64.99;97785.72;260775;1104;115012;-68
2021/01/13 00:20:56;;;;;;;25.57;13.87;;;;;;;2.12;65.32;97790.27;260466;1103;115642;-67
2021/01/13 00:25:58;;;;;;;27.80;15.37;;;;;;;2.11;65.21;97791.20;260738;1104;115206;-66
2021/01/13 00:31:02;;;;;;;27.00;14.27;;;;;;;2.08;65.58;97790.50;260951;1104;115110;-66
2021/01/13 00:36:05;;;;;;;27.57;14.03;;;;;;;2.06;65.51;97792.33;260846;1104;115752;-67
2021/01/13 00:41:07;;;;;;;25.70;14.03;;;;;;;2.10;65.77;97801.75;260863;1104;114934;-68
2021/01/13 00:46:09;;;;;;;19.30;12.20;;;;;;;2.20;65.84;97804.78;260806;1104;115928;-66
2021/01/13 00:51:12;;;;;;;22.20;12.80;;;;;;;2.22;66.21;97810.83;260599;1103;114955;-65
2021/01/13 00:56:22;;;;;;;20.93;11.53;;;;;;;2.32;65.95;97802.42;260873;1103;115406;-64
2021/01/13 01:01:27;;;;;;;19.87;11.80;;;;;;;2.40;66.31;97809.08;259914;1104;115589;-64
2021/01/13 01:06:29;;;;;;;18.40;9.53;;;;;;;2.42;65.91;97808.08;260821;1104;115206;-65
2021/01/13 01:11:35;;;;;;;15.80;9.30;;;;;;;2.41;66.23;97827.36;260850;1103;115098;-69
2021/01/13 01:16:51;;;;;;;15.13;8.97;;;;;;;2.42;66.22;97826.45;260805;1104;114750;-71
2021/01/13 01:22:01;;;;;;;16.07;8.87;;;;;;;2.42;66.15;97826.45;260923;1104;114599;-67
2021/01/13 01:27:04;;;;;;;16.17;9.93;;;;;;;2.40;67.16;97830.92;260325;1103;114918;-67
2021/01/13 01:32:06;;;;;;;17.47;10.10;;;;;;;2.41;66.50;97840.48;260794;1103;114985;-68
2021/01/13 01:37:11;;;;;;;16.62;9.60;;;;;;;2.47;66.77;97853.33;260446;1104;115716;-69
2021/01/13 01:42:17;;;;;;;14.93;9.20;;;;;;;2.48;67.03;97849.80;260118;1104;115263;-68
2021/01/13 01:47:27;;;;;;;;;;;;;;;2.58;66.87;97861.55;258768;1104;114763;-69
2021/01/13 01:52:40;;;;;;;15.37;9.77;;;;;;;2.67;66.84;97875.15;259688;1104;108521;-69
2021/01/13 01:57:46;;;;;;;13.50;8.27;;;;;;;2.71;66.73;97876.69;260615;1104;115163;-70
2021/01/13 02:02:55;;;;;;;12.07;8.07;;;;;;;2.68;66.67;97867.17;260847;1104;115198;-65
2021/01/13 02:08:01;;;;;;;12.90;7.50;;;;;;;2.66;66.50;97862.95;260701;1104;114656;-64
2021/01/13 02:13:07;;;;;;;13.20;6.57;;;;;;;2.69;66.18;97868.05;260917;1104;114949;-66
2021/01/13 02:18:11;;;;;;;10.37;6.20;;;;;;;2.73;66.29;97869.60;260661;1103;114847;-67
2021/01/13 02:23:29;;;;;;;9.83;5.80;;;;;;;2.75;66.09;97867.73;260925;1104;114940;-66
2021/01/13 02:29:06;;;;;;;9.27;4.93;;;;;;;2.73;65.89;97886.20;260807;1104;114530;-69
2021/01/13 02:34:16;;;;;;;7.17;3.93;;;;;;;2.73;65.52;97887.98;260752;1104;114659;-66
2021/01/13 02:39:19;;;;;;;7.77;4.50;;;;;;;2.66;65.38;97908.45;260906;1104;114594;-64
2021/01/13 02:44:29;;;;;;;7.20;4.53;;;;;;;2.52;65.44;97909.11;260938;1104;116058;-65
2021/01/13 02:49:49;;;;;;;8.10;4.90;;;;;;;2.46;65.41;97909.39;260901;1104;114503;-68
2021/01/13 02:54:56;;;;;;;8.27;3.67;;;;;;;2.45;65.33;97914.73;260852;1104;114694;-67
2021/01/13 03:00:04;;;;;;;7.00;4.53;;;;;;;2.44;65.72;97920.89;260176;1104;114417;-72
2021/01/13 03:05:11;;;;;;;7.97;5.00;;;;;;;2.47;65.33;97910.24;260722;1104;114537;-65
2021/01/13 03:10:19;;;;;;;5.67;3.80;;;;;;;2.47;65.12;97924.22;259879;1104;115226;-65
2021/01/13 03:15:23;;;;;;;7.10;4.23;;;;;;;2.48;65.50;97938.19;260452;1103;116295;-65
2021/01/13 03:21:06;;;;;;;6.37;4.40;;;;;;;2.51;65.22;97923.14;260765;1104;114585;-65
2021/01/13 03:26:12;;;;;;;5.77;4.00;;;;;;;2.54;65.41;97922.16;259793;1107;114659;-65
2021/01/13 03:31:25;;;;;;;5.53;3.80;;;;;;;2.51;64.72;97933.64;260607;1104;114534;-65
2021/01/13 03:37:26;;;;;;;6.77;4.03;;;;;;;2.48;64.75;97941.70;260890;1104;114530;-65
2021/01/13 03:42:36;;;;;;;6.80;3.90;;;;;;;2.45;64.93;97940.99;259841;1107;114545;-65
2021/01/13 03:47:41;;;;;;;7.20;4.43;;;;;;;2.43;64.87;97941.05;260659;1104;114617;-65
2021/01/13 03:53:00;;;;;;;7.23;4.20;;;;;;;2.46;65.07;97942.69;260811;1104;114582;-64
2021/01/13 03:58:08;;;;;;;7.60;4.80;;;;;;;2.49;65.07;97947.80;260926;1104;114656;-69
2021/01/13 04:03:22;;;;;;;9.40;4.90;;;;;;;2.55;64.89;97940.48;260866;1104;114437;-69
2021/01/13 04:08:26;;;;;;;9.23;4.90;;;;;;;2.60;65.00;97938.47;260784;1104;114559;-69
2021/01/13 04:13:39;;;;;;;10.60;5.80;;;;;;;2.60;65.21;97945.50;260915;1103;114570;-64
2021/01/13 04:18:45;;;;;;;13.53;6.00;;;;;;;2.65;65.14;97945.27;260963;1104;115300;-64
2021/01/13 04:23:48;;;;;;;9.63;5.80;;;;;;;2.63;65.25;97941.89;260409;1104;115172;-66
2021/01/13 04:28:51;;;;;;;9.27;6.37;;;;;;;2.60;65.22;97933.22;259449;1104;114680;-70
2021/01/13 04:33:53;;;;;;;12.63;7.30;;;;;;;2.52;65.31;97940.63;260690;1104;114534;-67
2021/01/13 04:39:02;;;;;;;12.27;8.10;;;;;;;2.53;65.52;97949.34;260832;1103;114463;-68
2021/01/13 04:44:12;;;;;;;13.17;7.77;;;;;;;2.55;65.66;97942.26;260968;1104;115966;-67
2021/01/13 04:49:20;;;;;;;17.10;9.20;;;;;;;2.58;65.47;97949.96;260929;1104;114670;-68
2021/01/13 04:54:25;;;;;;;16.93;10.17;;;;;;;2.55;65.51;97950.14;260038;1104;114430;-67
2021/01/13 05:00:15;;;;;;;;;;;;;;;;;;;;;
2021/01/13 05:05:28;;;;;;;15.28;9.65;;;;;;;2.46;65.40;97963.69;260777;1104;114967;-64
2021/01/13 05:10:34;;;;;;;15.53;10.05;;;;;;;2.43;65.94;97969.92;260893;1104;114794;-64
2021/01/13 05:15:40;;;;;;;16.40;10.60;;;;;;;2.48;66.44;97985.45;260946;1104;115018;-64
2021/01/13 05:21:15;;;;;;;19.87;11.20;;;;;;;2.49;66.36;97974.90;260363;1104;114908;-62
2021/01/13 05:26:26;;;;;;;15.57;10.40;;;;;;;2.46;65.99;97976.81;260702;1104;114801;-63
2021/01/13 05:31:33;;;;;;;18.13;12.20;;;;;;;2.50;66.55;97973.13;260841;1104;116099;-62
2021/01/13 05:36:43;;;;;;;17.63;11.30;;;;;;;2.59;66.50;97981.42;260663;1104;115655;-63
2021/01/13 05:41:46;;;;;;;18.17;10.37;;;;;;;2.56;65.43;97986.81;259668;1104;116170;-64
2021/01/13 05:46:48;;;;;;;16.77;9.67;;;;;;;2.57;66.62;97999.02;260669;1104;114950;-65
2021/01/13 05:51:51;;;;;;;14.77;9.00;;;;;;;2.59;66.19;97999.81;260775;1104;114699;-63
2021/01/13 05:56:55;;;;;;;15.33;8.63;;;;;;;2.59;66.02;98010.31;260801;1104;114574;-64
2021/01/13 06:02:13;;;;;;;11.87;6.77;;;;;;;2.60;66.24;98014.63;260640;1103;114727;-63
2021/01/13 06:07:30;;;;;;;15.03;7.97;;;;;;;2.59;66.02;98022.59;259451;1104;115032;-65
2021/01/13 06:12:40;;;;;;;10.60;7.23;;;;;;;2.54;65.65;98035.92;260671;1105;115935;-63
2021/01/13 06:17:53;;;;;;;11.17;7.07;;;;;;;2.43;65.96;98046.06;258461;1104;114582;-69
2021/01/13 06:22:58;;;;;;;9.70;6.30;;;;;;;2.28;65.31;98054.65;260638;1104;114654;-65
2021/01/13 06:28:03;;;;;;;10.30;5.10;;;;;;;2.26;65.78;98069.60;260783;1104;114553;-65
2021/01/13 06:33:08;;;;;;;10.07;5.07;;;;;;;2.15;65.73;98074.48;260712;1104;115612;-64
2021/01/13 06:38:40;;;;;;;10.20;4.70;;;;;;;2.07;65.29;98086.16;260783;1104;114875;-64
2021/01/13 06:44:17;;;;;;;7.17;3.33;;;;;;;2.07;65.50;98109.78;260746;1104;114850;-67
2021/01/13 06:49:21;;;;;;;4.57;2.17;;;;;;;1.94;65.08;98116.46;260813;1104;114421;-65
2021/01/13 06:54:24;;;;;;;5.47;2.07;;;;;;;1.82;64.88;98132.70;260792;1104;114565;-64
2021/01/13 06:59:38;;;;;;;7.53;2.27;;;;;;;1.75;64.38;98137.34;260849;1104;114727;-65
2021/01/13 07:04:48;;;;;;;7.20;2.03;;;;;;;1.71;64.85;98158.53;258805;1104;114860;-65
2021/01/13 07:09:56;;;;;;;8.93;2.60;;;;;;;1.78;65.04;98160.83;260145;1103;115259;-67
2021/01/13 07:14:58;;;;;;;3.23;1.90;;;;;;;1.80;64.76;98161.63;260808;1104;115582;-66
2021/01/13 07:20:05;;;;;;;8.47;1.87;;;;;;;1.82;64.43;98153.69;260817;1104;115212;-68
2021/01/13 07:25:15;;;;;;;4.67;2.00;;;;;;;1.86;64.44;98166.60;260823;1104;115261;-67
2021/01/13 07:30:24;;;;;;;4.90;1.83;;;;;;;1.91;63.53;98176.08;260768;1104;114544;-67
2021/01/13 07:35:48;;;;;;;6.90;2.00;;;;;;;1.84;63.56;98189.44;260807;1104;114348;-67
2021/01/13 07:41:03;;;;;;;6.00;2.83;;;;;;;1.84;63.71;98199.08;260897;1104;114175;-66
2021/01/13 07:46:16;;;;;;;6.77;2.93;;;;;;;1.85;63.62;98201.63;260876;1104;114570;-66
2021/01/13 07:51:19;;;;;;;6.60;3.23;;;;;;;1.85;63.88;98213.89;261028;1104;114419;-65
2021/01/13 07:56:26;;;;;;;9.97;4.37;;;;;;;1.81;63.83;98209.70;260889;1104;114545;-65
2021/01/13 08:02:25;;;;;;;8.73;3.90;;;;;;;1.80;64.14;98206.22;260822;1104;114700;-64
2021/01/13 08:07:40;;;;;;;8.27;3.60;;;;;;;1.87;64.68;98202.44;259822;1108;114621;-66
2021/01/13 08:13:22;;;;;;;9.60;4.00;;;;;;;1.91;64.83;98207.56;260827;1104;114878;-66
2021/01/13 08:18:41;;;;;;;11.80;4.60;;;;;;;1.94;64.09;98207.41;261009;1104;115043;-64
2021/01/13 08:23:47;;;;;;;9.83;4.27;;;;;;;1.95;63.78;98217.01;260797;1104;114754;-64
2021/01/13 08:28:52;;;;;;;11.87;5.20;;;;;;;1.99;64.12;98208.94;260844;1104;114154;-68
2021/01/13 08:34:09;;;;;;;9.90;4.57;;;;;;;2.09;64.18;98212.05;260838;1104;114645;-69
2021/01/13 08:39:15;;;;;;;10.20;5.13;;;;;;;2.16;64.18;98210.02;260870;1104;114419;-69
2021/01/13 08:44:19;;;;;;;12.93;5.73;;;;;;;2.21;64.05;98208.92;259964;1103;116716;-67
2021/01/13 08:49:26;;;;;;;7.40;4.97;;;;;;;2.25;64.10;98225.40;260776;1103;114780;-66
2021/01/13 08:54:30;;;;;;;11.60;6.17;;;;;;;2.29;63.97;98232.22;260859;1104;114487;-66
2021/01/13 08:59:33;;;;;;;9.03;5.23;;;;;;;2.34;64.07;98223.25;260946;1104;114749;-65
2021/01/13 09:04:54;;;;;;;11.50;5.97;;;;;;;2.39;63.89;98220.41;260734;1104;114860;-69
2021/01/13 09:09:59;;;;;;;12.17;5.37;;;;;;;2.45;63.81;98222.79;259970;1104;114817;-68
2021/01/13 09:15:07;;;;;;;11.97;5.30;;;;;;;2.51;63.61;98225.13;259768;1107;114777;-69
2021/01/13 09:20:31;;;;;;;11.67;5.77;;;;;;;2.59;63.75;98230.92;260007;1104;114853;-68
2021/01/13 09:25:47;;;;;;;14.53;6.13;;;;;;;2.65;63.79;98227.19;260635;1104;114797;-69
2021/01/13 09:30:49;;;;;;;14.40;6.30;;;;;;;2.64;63.32;98232.49;260830;1104;114745;-65
2021/01/13 09:36:00;;;;;;;17.30;8.47;;;;;;;2.64;63.76;98219.36;260814;1104;114904;-64
2021/01/13 09:41:04;;;;;;;17.50;9.13;;;;;;;2.53;63.91;98217.20;260842;1104;115188;-65
2021/01/13 09:46:25;;;;;;;21.23;10.57;;;;;;;2.53;64.11;98206.70;260910;1104;114792;-64
2021/01/13 09:51:29;;;;;;;19.60;10.30;;;;;;;2.64;64.34;98219.36;260781;1104;115150;-63
2021/01/13 09:56:34;;;;;;;23.23;10.73;;;;;;;2.60;63.82;98211.61;260487;1104;114922;-64
2021/01/13 10:01:38;;;;;;;22.27;11.17;;;;;;;2.56;64.19;98222.33;260921;1104;114824;-64
2021/01/13 10:06:42;;;;;;;22.43;11.67;;;;;;;2.53;63.63;98218.05;260669;1104;114922;-63
2021/01/13 10:11:55;;;;;;;19.43;10.87;;;;;;;2.59;64.42;98207.29;260566;1104;114921;-63
2021/01/13 10:16:59;;;;;;;20.85;10.65;;;;;;;2.68;64.23;98221.78;260905;1104;115146;-63
2021/01/13 10:22:02;;;;;;;22.83;9.83;;;;;;;2.71;64.06;98218.17;260931;1104;115149;-64
2021/01/13 10:27:05;;;;;;;20.90;10.10;;;;;;;2.58;64.04;98213.47;260584;1104;114764;-64
2021/01/13 10:32:08;;;;;;;21.47;11.77;;;;;;;2.56;64.49;98217.92;260805;1104;115293;-64
2021/01/13 10:37:11;;;;;;;24.83;12.97;;;;;;;2.56;64.29;98210.05;260857;1104;114902;-65
2021/01/13 10:42:14;;;;;;;25.23;12.00;;;;;;;2.53;64.52;98206.70;260845;1103;115036;-67
2021/01/13 10:47:17;;;;;;;26.63;12.70;;;;;;;2.57;64.65;98197.77;260679;1103;114785;-66
2021/01/13 10:52:21;;;;;;;26.35;13.60;;;;;;;2.61;64.78;98207.20;260966;1103;115115;-67
2021/01/13 10:57:31;;;;;;;26.13;13.67;;;;;;;2.63;64.80;98202.75;260841;1104;115943;-66
2021/01/13 11:02:34;;;;;;;29.93;13.97;;;;;;;2.63;65.04;98197.50;260709;1104;115094;-66
2021/01/13 11:07:38;;;;;;;28.83;13.23;;;;;;;2.72;64.99;98191.86;260700;1104;114944;-66
2021/01/13 11:12:41;;;;;;;30.40;13.27;;;;;;;2.76;64.96;98182.06;260729;1104;114831;-66
2021/01/13 11:17:45;;;;;;;30.30;15.43;;;;;;;2.76;64.59;98175.03;257647;1104;115441;-67
2021/01/13 11:22:49;;;;;;;29.10;14.80;;;;;;;2.85;65.17;98160.61;260333;1104;114851;-67
2021/01/13 11:27:56;;;;;;;37.88;16.32;;;;;;;2.93;65.15;98162.91;260937;1104;115299;-65
2021/01/13 11:33:03;;;;;;;26.03;13.90;;;;;;;2.93;65.17;98157.66;260829;1104;114752;-66
2021/01/13 11:38:46;;;;;;;36.00;15.33;;;;;;;2.92;64.86;98150.67;257522;1104;116609;-68
2021/01/13 11:44:11;;;;;;;35.50;15.93;;;;;;;2.89;64.87;98141.19;260920;1103;114947;-65
2021/01/13 11:49:36;;;;;;;37.40;15.50;;;;;;;2.86;64.63;98156.23;260855;1103;115435;-65
2021/01/13 11:54:41;;;;;;;36.23;14.37;;;;;;;2.89;64.51;98146.44;260825;1104;114882;-64
2021/01/13 11:59:45;;;;;;;30.40;13.70;;;;;;;2.85;64.67;98163.23;259864;1104;114888;-65
2021/01/13 12:04:47;;;;;;;25.77;13.10;;;;;;;2.67;64.48;98162.30;260838;1104;115043;-63
2021/01/13 12:10:13;;;;;;;25.33;11.10;;;;;;;2.55;64.89;98170.73;259785;1104;115247;-65
2021/01/13 12:15:16;;;;;;;;;;;;;;;2.42;64.86;98173.03;260779;1104;114978;-65
2021/01/13 12:20:32;;;;;;;22.50;10.57;;;;;;;2.39;65.46;98170.53;260648;1103;102722;-65
2021/01/13 12:25:34;;;;;;;20.37;10.10;;;;;;;2.34;65.15;98151.48;260753;1103;114998;-65
2021/01/13 12:30:54;;;;;;;19.60;10.23;;;;;;;2.34;65.56;98156.73;260880;1104;115087;-65
2021/01/13 12:35:56;;;;;;;18.17;8.75;;;;;;;2.30;65.70;98160.42;260852;1104;114886;-65
2021/01/13 12:41:06;;;;;;;18.27;8.90;;;;;;;2.26;65.90;98161.47;260918;1104;115155;-66
2021/01/13 12:46:08;;;;;;;20.20;9.87;;;;;;;2.21;66.31;98158.17;260924;1104;114652;-63
2021/01/13 12:51:10;;;;;;;18.90;9.93;;;;;;;2.11;65.99;98155.11;260783;1104;114805;-63
2021/01/13 12:56:23;;;;;;;18.73;9.67;;;;;;;2.08;66.21;98149.99;260767;1104;114853;-66
2021/01/13 13:01:26;;;;;;;18.23;10.13;;;;;;;2.03;66.37;98152.78;260860;1104;114718;-62
2021/01/13 13:06:30;;;;;;;21.20;10.03;;;;;;;2.29;67.65;98150.84;260633;1104;115127;-62
2021/01/13 13:11:32;;;;;;;19.10;10.50;;;;;;;2.43;66.91;98158.13;260794;1104;114797;-62
2021/01/13 13:16:35;;;;;;;26.73;11.20;;;;;;;2.43;66.68;98152.88;260799;1104;114901;-63
2021/01/13 13:21:37;;;;;;;20.27;11.17;;;;;;;2.34;66.76;98140.98;260837;1104;114968;-62
2021/01/13 13:26:40;;;;;;;21.23;11.37;;;;;;;2.35;66.84;98145.34;259090;1104;115229;-62
2021/01/13 13:31:48;;;;;;;18.10;11.20;;;;;;;2.37;66.90;98148.73;260724;1104;115001;-62
2021/01/13 13:36:59;;;;;;;22.90;11.73;;;;;;;2.36;67.16;98154.91;260918;1104;116942;-62
2021/01/13 13:42:01;;;;;;;19.47;11.37;;;;;;;2.37;66.54;98154.83;259905;1104;114772;-64
2021/01/13 13:47:03;;;;;;;25.53;11.30;;;;;;;2.37;66.98;98154.83;260801;1103;115237;-64
2021/01/13 13:52:06;;;;;;;22.30;11.77;;;;;;;2.40;66.87;98147.75;260851;1104;114923;-63
2021/01/13 13:57:08;;;;;;;22.50;11.17;;;;;;;2.38;67.32;98150.45;260695;1104;115005;-63
2021/01/13 14:02:11;;;;;;;23.80;11.83;;;;;;;2.37;67.26;98156.60;260727;1104;114966;-63
2021/01/13 14:07:13;;;;;;;24.13;13.30;;;;;;;2.43;67.23;98164.22;259967;1104;115274;-62
2021/01/13 14:12:16;;;;;;;24.70;12.50;;;;;;;2.44;66.75;98175.57;260890;1104;114808;-63
2021/01/13 14:17:18;;;;;;;24.27;12.87;;;;;;;2.46;67.05;98185.09;259913;1104;115469;-69
2021/01/13 14:22:21;;;;;;;28.27;15.03;;;;;;;2.47;67.00;98192.05;259710;1104;115148;-66
2021/01/13 14:27:23;;;;;;;27.33;14.03;;;;;;;2.47;66.93;98180.70;260793;1104;115794;-65
2021/01/13 14:32:25;;;;;;;30.27;15.07;;;;;;;2.51;67.07;98188.36;260850;1104;114856;-66
2021/01/13 14:37:32;;;;;;;26.77;14.53;;;;;;;2.46;66.76;98174.59;260840;1104;114877;-66
2021/01/13 14:42:35;;;;;;;27.77;14.97;;;;;;;2.45;67.17;98185.18;260948;1104;115035;-65
2021/01/13 14:47:37;;;;;;;30.40;16.17;;;;;;;2.48;67.37;98190.27;260771;1104;114894;-67
2021/01/13 14:52:39;;;;;;;28.07;14.90;;;;;;;2.48;66.95;98179.77;260615;1104;114887;-66
2021/01/13 14:57:42;;;;;;;27.63;14.87;;;;;;;2.51;67.52;98179.64;260722;1104;115909;-67
2021/01/13 15:02:44;;;;;;;30.13;16.37;;;;;;;2.47;67.71;98184.17;260836;1104;115174;-66
2021/01/13 15:07:48;;;;;;;31.13;16.73;;;;;;;2.47;67.73;98178.92;260822;1104;114827;-67
2021/01/13 15:12:51;;;;;;;;;;;;;;;2.48;67.97;98178.02;260940;1103;115020;-67
2021/01/13 15:17:54;;;;;;;28.80;16.77;;;;;;;2.42;67.75;98180.91;260755;1104;102488;-66
2021/01/13 15:22:56;;;;;;;31.47;17.10;;;;;;;2.41;67.97;98171.30;260733;1103;114651;-67
2021/01/13 15:27:58;;;;;;;40.37;17.83;;;;;;;2.45;68.32;98172.05;260654;1104;115034;-67
2021/01/13 15:33:01;;;;;;;33.87;17.17;;;;;;;2.47;67.86;98164.94;260771;1104;114987;-67
2021/01/13 15:38:03;;;;;;;34.00;18.20;;;;;;;2.49;68.36;98173.62;260857;1104;114494;-67
2021/01/13 15:43:06;;;;;;;34.43;18.57;;;;;;;2.52;68.30;98166.45;260868;1104;114943;-66
2021/01/13 15:48:08;;;;;;;34.43;17.83;;;;;;;2.51;68.22;98171.76;260799;1104;115083;-67
2021/01/13 15:53:14;;;;;;;;;;;;;;;2.50;68.05;98164.81;259415;1104;115087;-65
2021/01/13 15:58:31;;;;;;;38.93;18.20;;;;;;;2.43;67.99;98166.84;257979;1105;104622;-66
2021/01/13 16:03:34;;;;;;;34.57;18.60;;;;;;;2.43;68.04;98166.84;259137;1104;116089;-64
2021/01/13 16:08:37;;;;;;;34.47;19.27;;;;;;;2.36;68.30;98157.53;259440;1104;115589;-65
2021/01/13 16:13:44;;;;;;;36.63;20.00;;;;;;;2.38;68.20;98160.95;260584;1104;115598;-65
2021/01/13 16:18:47;;;;;;;37.87;19.97;;;;;;;2.39;68.18;98154.78;260768;1104;115386;-65
2021/01/13 16:23:49;;;;;;;37.60;19.17;;;;;;;2.47;68.43;98143.94;258501;1103;115061;-65
2021/01/13 16:28:55;;;;;;;40.20;20.60;;;;;;;2.51;68.37;98143.72;260782;1103;114889;-65
2021/01/13 16:34:02;;;;;;;40.90;20.33;;;;;;;2.50;68.33;98155.16;259411;1104;117884;-65
2021/01/13 16:39:06;;;;;;;36.40;19.47;;;;;;;2.51;68.15;98145.50;260708;1104;115211;-64
2021/01/13 16:44:20;;;;;;;41.40;19.67;;;;;;;2.48;67.89;98149.14;260499;1104;114969;-65
2021/01/13 16:49:23;;;;;;;37.67;18.63;;;;;;;2.53;68.23;98155.02;260850;1104;115896;-64
2021/01/13 16:54:25;;;;;;;37.27;18.10;;;;;;;2.47;67.88;98150.03;259372;1104;116248;-65
2021/01/13 16:59:30;;;;;;;38.23;17.20;;;;;;;2.42;68.21;98157.27;259193;1104;115485;-64
2021/01/13 17:04:32;;;;;;;;;;;;;;;2.40;68.04;98151.22;260911;1104;115261;-65
2021/01/13 17:09:38;;;;;;;32.03;15.40;;;;;;;2.34;68.50;98151.48;259733;1104;105831;-65
2021/01/13 17:14:45;;;;;;;32.55;16.82;;;;;;;2.28;68.09;98144.75;260175;1104;115911;-66
2021/01/13 17:19:48;;;;;;;34.47;15.03;;;;;;;2.27;68.37;98144.80;257446;1104;116243;-66
2021/01/13 17:24:51;;;;;;;32.53;14.93;;;;;;;2.25;68.42;98136.15;260796;1104;115032;-65
2021/01/13 17:29:53;;;;;;;27.07;13.73;;;;;;;2.24;68.20;98129.17;260804;1104;115052;-65
2021/01/13 17:34:56;;;;;;;27.57;13.87;;;;;;;2.23;68.42;98130.95;260348;1104;116011;-65
2021/01/13 17:40:04;;;;;;;26.00;13.10;;;;;;;2.19;68.88;98132.00;259567;1104;114999;-65
2021/01/13 17:45:12;;;;;;;25.80;13.43;;;;;;;2.16;68.96;98134.76;259120;1104;115162;-66
2021/01/13 17:50:18;;;;;;;26.73;12.53;;;;;;;2.11;68.59;98126.25;259596;1104;115062;-67
2021/01/13 17:55:25;;;;;;;26.07;13.03;;;;;;;2.09;68.52;98120.20;260874;1104;114776;-68
2021/01/13 18:00:29;;;;;;;26.13;12.70;;;;;;;2.09;68.67;98118.42;260367;1104;116789;-67
2021/01/13 18:05:48;;;;;;;26.40;12.30;;;;;;;2.12;68.72;98112.20;258808;1104;115022;-68
2021/01/13 18:10:56;;;;;;;28.73;13.03;;;;;;;2.15;68.86;98105.97;258702;1103;115279;-67
2021/01/13 18:16:01;;;;;;;26.90;12.50;;;;;;;2.12;68.46;98099.92;260386;1104;115229;-65
2021/01/13 18:21:05;;;;;;;26.10;12.13;;;;;;;2.02;68.12;98103.02;260036;1104;116659;-66
2021/01/13 18:26:15;;;;;;;24.77;12.50;;;;;;;1.94;68.81;98092.85;258718;1104;116666;-65
2021/01/13 18:31:42;;;;;;;23.60;11.80;;;;;;;1.87;68.87;98084.38;259921;1104;115422;-65
2021/01/13 18:36:44;;;;;;;27.07;12.93;;;;;;;1.81;68.94;98089.03;260875;1104;114817;-66
2021/01/13 18:41:47;;;;;;;29.47;13.50;;;;;;;1.78;68.87;98076.89;260890;1104;115411;-66
2021/01/13 18:46:49;;;;;;;24.70;11.23;;;;;;;1.78;69.20;98083.92;260477;1104;115251;-68
2021/01/13 18:51:55;;;;;;;28.97;12.30;;;;;;;1.84;69.08;98084.52;259277;1104;116157;-66
2021/01/13 18:57:10;;;;;;;23.83;12.50;;;;;;;1.88;68.93;98074.74;259875;1104;115234;-66
2021/01/13 19:02:12;;;;;;;28.20;11.80;;;;;;;1.92;69.21;98071.06;260093;1104;115239;-66
2021/01/13 19:07:17;;;;;;;26.40;13.07;;;;;;;1.99;69.21;98064.63;260218;1104;114815;-66
2021/01/13 19:12:20;;;;;;;28.20;14.30;;;;;;;2.02;69.36;98066.28;260557;1104;116073;-66
2021/01/13 19:17:22;;;;;;;27.23;12.37;;;;;;;2.03;69.21;98068.81;260836;1104;115174;-66
2021/01/13 19:22:25;;;;;;;26.50;13.23;;;;;;;1.94;69.05;98069.23;258981;1104;116002;-66
2021/01/13 19:27:27;;;;;;;26.23;13.03;;;;;;;1.91;69.19;98068.52;260055;1104;115191;-67
2021/01/13 19:32:29;;;;;;;28.63;13.30;;;;;;;1.91;69.17;98052.78;255313;1105;115222;-67
2021/01/13 19:37:32;;;;;;;26.07;13.63;;;;;;;1.98;70.02;98049.81;260944;1104;114917;-67
2021/01/13 19:42:34;;;;;;;22.77;12.77;;;;;;;2.05;69.43;98038.12;260861;1104;115319;-67
2021/01/13 19:47:36;;;;;;;23.70;12.53;;;;;;;2.03;69.02;98039.95;260943;1104;115196;-66
2021/01/13 19:52:39;;;;;;;28.33;13.60;;;;;;;2.04;69.24;98027.72;260860;1104;115390;-67
2021/01/13 19:57:41;;;;;;;28.63;13.40;;;;;;;2.09;69.27;98020.48;257873;1104;115239;-66
2021/01/13 20:02:44;;;;;;;24.37;13.27;;;;;;;2.12;69.31;98015.95;260757;1104;114930;-65
2021/01/13 20:07:48;;;;;;;27.20;13.83;;;;;;;2.16;69.36;98019.28;260381;1104;116267;-65
2021/01/13 20:12:53;;;;;;;23.27;13.33;;;;;;;2.13;69.16;98015.02;260634;1103;115363;-63
2021/01/13 20:17:58;;;;;;;27.07;14.10;;;;;;;2.11;69.14;98019.50;260803;1104;115696;-64
2021/01/13 20:23:00;;;;;;;26.33;13.37;;;;;;;2.02;68.95;98009.40;259377;1103;115376;-64
2021/01/13 20:28:03;;;;;;;26.33;14.57;;;;;;;1.96;69.05;98012.28;260917;1103;115884;-64
2021/01/13 20:33:09;;;;;;;28.63;14.77;;;;;;;1.99;69.07;98009.53;260791;1104;115616;-66
2021/01/13 20:38:13;;;;;;;26.60;13.83;;;;;;;2.03;69.11;98002.38;261015;1104;115184;-65
2021/01/13 20:43:15;;;;;;;27.33;14.30;;;;;;;2.06;69.26;98000.47;260698;1104;114857;-65
2021/01/13 20:48:18;;;;;;;27.07;14.90;;;;;;;2.07;69.21;97999.56;260882;1104;115120;-63
2021/01/13 20:53:20;;;;;;;29.83;13.40;;;;;;;2.09;69.25;97981.96;260877;1104;115569;-63
2021/01/13 20:58:23;;;;;;;24.77;13.77;;;;;;;2.12;69.43;97979.20;260887;1104;115594;-63
2021/01/13 21:03:25;;;;;;;30.07;15.37;;;;;;;2.11;69.21;97971.41;259605;1104;116898;-63
2021/01/13 21:08:28;;;;;;;27.43;14.60;;;;;;;2.15;69.51;97959.00;258512;1104;115061;-63
2021/01/13 21:13:31;;;;;;;27.27;13.17;;;;;;;2.18;69.20;97957.09;260697;1104;116561;-63
2021/01/13 21:18:33;;;;;;;27.07;13.77;;;;;;;2.16;69.21;97953.67;260717;1104;115024;-63
2021/01/13 21:23:35;;;;;;;27.40;14.47;;;;;;;2.18;69.23;97948.38;260700;1104;115622;-63
2021/01/13 21:28:38;;;;;;;30.03;14.67;;;;;;;2.19;69.00;97947.44;260929;1104;114908;-63
2021/01/13 21:33:41;;;;;;;26.23;13.40;;;;;;;2.17;69.02;97944.02;260088;1104;115648;-63
2021/01/13 21:38:45;;;;;;;28.70;14.00;;;;;;;2.14;68.96;97939.78;259214;1104;114820;-62
2021/01/13 21:43:47;;;;;;;29.35;14.25;;;;;;;2.16;69.53;97934.45;260791;1104;115245;-62
2021/01/13 21:48:51;;;;;;;25.03;13.10;;;;;;;2.20;69.08;97915.02;260864;1104;115130;-63
2021/01/13 21:53:54;;;;;;;33.10;14.33;;;;;;;2.15;69.06;97915.23;260570;1104;115089;-61
2021/01/13 21:58:56;;;;;;;33.33;14.50;;;;;;;2.11;69.15;97914.53;260785;1104;114648;-61
2021/01/13 22:04:02;;;;;;;29.98;13.95;;;;;;;2.07;68.66;97915.59;258003;1104;115067;-63
2021/01/13 22:09:13;;;;;;;27.20;13.90;;;;;;;2.04;69.32;97917.52;256745;1104;115297;-62
2021/01/13 22:14:17;;;;;;;29.67;15.70;;;;;;;2.03;68.54;97905.30;257609;1104;115291;-63
2021/01/13 22:19:40;;;;;;;32.13;16.50;;;;;;;2.05;69.28;97904.31;260899;1104;114656;-62
2021/01/13 22:24:42;;;;;;;28.30;14.27;;;;;;;2.02;68.83;97887.86;260768;1104;114732;-62
2021/01/13 22:29:45;;;;;;;29.40;14.43;;;;;;;2.02;69.00;97886.08;260817;1104;115240;-63
2021/01/13 22:34:53;;;;;;;29.87;14.83;;;;;;;2.07;69.22;97886.73;258014;1104;115147;-63
2021/01/13 22:39:55;;;;;;;29.53;15.97;;;;;;;2.11;69.25;97875.17;259495;1104;115281;-66
2021/01/13 22:44:59;;;;;;;25.97;13.70;;;;;;;2.09;69.68;97869.13;260538;1104;115993;-65
2021/01/13 22:50:09;;;;;;;30.23;14.30;;;;;;;2.10;69.03;97870.81;259043;1104;114862;-64
2021/01/13 22:55:12;;;;;;;26.23;14.63;;;;;;;2.12;68.96;97855.86;260614;1104;115626;-64
2021/01/13 23:00:22;;;;;;;30.20;14.37;;;;;;;2.09;69.00;97857.78;260199;1103;116394;-64
2021/01/13 23:05:25;;;;;;;29.83;15.17;;;;;;;2.09;69.02;97842.89;260557;1104;115708;-63
2021/01/13 23:10:28;;;;;;;26.27;14.47;;;;;;;2.10;68.98;97843.73;260738;1105;115109;-63
2021/01/13 23:15:32;;;;;;;27.97;15.00;;;;;;;2.08;68.97;97840.35;260665;1104;114797;-65
2021/01/13 23:20:34;;;;;;;26.57;13.50;;;;;;;2.12;69.15;97834.03;260747;1103;115150;-64
2021/01/13 23:25:37;;;;;;;26.73;13.37;;;;;;;2.13;69.27;97822.59;260781;1103;115159;-64
2021/01/13 23:30:40;;;;;;;29.23;13.70;;;;;;;2.12;69.27;97819.13;260843;1104;114944;-65